createdAt,value
2022-12-19T00:00:33.441Z,9.60
2022-12-19T00:03:02.207Z,10.43
2022-12-19T00:05:30.861Z,6.87
2022-12-19T00:08:00.558Z,8.03
2022-12-19T00:10:37.949Z,6.23
2022-12-19T00:13:06.391Z,4.27
2022-12-19T00:15:37.008Z,4.70
2022-12-19T00:18:07.000Z,4.03
2022-12-19T00:20:35.611Z,7.93
2022-12-19T00:23:04.067Z,6.70
2022-12-19T00:25:32.584Z,5.40
2022-12-19T00:28:02.195Z,4.17
2022-12-19T00:30:30.624Z,5.60
2022-12-19T00:33:00.592Z,6.17
2022-12-19T00:35:29.222Z,4.90
2022-12-19T00:37:58.113Z,5.60
2022-12-19T00:40:26.709Z,5.57
2022-12-19T00:42:55.441Z,4.57
2022-12-19T00:45:25.866Z,7.77
2022-12-19T00:47:54.408Z,7.80
2022-12-19T00:50:24.413Z,5.50
2022-12-19T00:52:52.886Z,9.00
2022-12-19T00:55:21.489Z,6.73
2022-12-19T00:57:50.060Z,11.60
2022-12-19T01:00:21.113Z,11.83
2022-12-19T01:02:49.776Z,16.10
2022-12-19T01:05:18.388Z,20.00
2022-12-19T01:07:48.206Z,24.73
2022-12-19T01:10:16.832Z,32.27
2022-12-19T01:12:47.500Z,35.27
2022-12-19T01:15:17.801Z,37.93
2022-12-19T01:17:46.315Z,39.97
2022-12-19T01:20:15.627Z,35.73
2022-12-19T01:22:44.161Z,37.17
2022-12-19T01:25:14.252Z,31.53
2022-12-19T01:27:43.045Z,29.50
2022-12-19T01:30:12.508Z,31.90
2022-12-19T01:32:42.245Z,27.53
2022-12-19T01:35:19.776Z,29.00
2022-12-19T01:37:50.893Z,36.73
2022-12-19T01:40:21.412Z,28.70
2022-12-19T01:42:50.307Z,32.93
2022-12-19T01:45:33.830Z,48.03
2022-12-19T01:48:06.560Z,42.77
2022-12-19T01:50:36.827Z,40.97
2022-12-19T01:53:08.795Z,33.93
2022-12-19T01:55:39.331Z,36.33
2022-12-19T01:58:07.973Z,37.33
2022-12-19T02:00:36.446Z,35.77
2022-12-19T02:03:13.363Z,36.73
2022-12-19T02:05:42.089Z,32.20
2022-12-19T02:08:10.697Z,33.57
2022-12-19T02:10:40.695Z,37.80
2022-12-19T02:13:09.938Z,34.43
2022-12-19T02:15:43.839Z,36.40
2022-12-19T02:18:15.078Z,29.47
2022-12-19T02:21:13.690Z,28.90
2022-12-19T02:24:00.499Z,33.17
2022-12-19T02:26:39.822Z,34.33
2022-12-19T02:29:21.126Z,28.73
2022-12-19T02:31:53.052Z,28.60
2022-12-19T02:34:24.756Z,36.50
2022-12-19T02:36:55.289Z,32.60
2022-12-19T02:39:27.254Z,25.90
2022-12-19T02:41:59.344Z,31.40
2022-12-19T02:44:28.674Z,29.47
2022-12-19T02:46:59.099Z,27.20
2022-12-19T02:49:30.756Z,25.17
2022-12-19T02:51:59.744Z,32.30
2022-12-19T02:54:28.348Z,30.63
2022-12-19T02:56:59.055Z,28.10
2022-12-19T02:59:41.959Z,29.50
2022-12-19T03:02:18.263Z,29.63
2022-12-19T03:04:50.170Z,28.53
2022-12-19T03:07:23.478Z,24.77
2022-12-19T03:09:54.326Z,27.33
2022-12-19T03:12:25.866Z,30.60
2022-12-19T03:14:55.142Z,31.37
2022-12-19T03:17:25.249Z,28.60
2022-12-19T03:19:53.750Z,31.50
2022-12-19T03:22:22.556Z,33.90
2022-12-19T03:24:51.183Z,30.60
2022-12-19T03:27:22.517Z,24.70
2022-12-19T03:29:52.498Z,30.37
2022-12-19T03:32:22.602Z,29.07
2022-12-19T03:34:55.683Z,30.17
2022-12-19T03:37:26.104Z,30.67
2022-12-19T03:39:56.261Z,32.57
2022-12-19T03:42:44.607Z,29.93
2022-12-19T03:45:13.495Z,22.13
2022-12-19T03:47:44.000Z,25.70
2022-12-19T03:50:14.184Z,23.63
2022-12-19T03:52:45.670Z,24.17
2022-12-19T03:55:15.894Z,25.23
2022-12-19T03:57:46.445Z,21.33
2022-12-19T04:00:15.833Z,25.23
2022-12-19T04:02:45.839Z,23.90
2022-12-19T04:05:19.357Z,24.93
2022-12-19T04:07:48.023Z,23.83
2022-12-19T04:10:18.677Z,24.20
2022-12-19T04:12:49.845Z,16.40
2022-12-19T04:15:18.631Z,19.63
2022-12-19T04:17:49.458Z,18.33
2022-12-19T04:20:20.343Z,23.70
2022-12-19T04:22:51.734Z,23.20
2022-12-19T04:25:25.115Z,20.17
2022-12-19T04:27:59.341Z,19.70
2022-12-19T04:30:28.366Z,19.83
2022-12-19T04:32:57.258Z,20.30
2022-12-19T04:35:27.161Z,20.07
2022-12-19T04:37:55.794Z,26.77
2022-12-19T04:40:24.358Z,19.60
2022-12-19T04:42:52.821Z,23.47
2022-12-19T04:45:21.426Z,20.40
2022-12-19T04:47:50.467Z,32.53
2022-12-19T04:50:18.914Z,26.47
2022-12-19T04:52:52.196Z,22.47
2022-12-19T04:55:23.054Z,25.60
2022-12-19T04:57:51.533Z,21.57
2022-12-19T05:00:20.147Z,21.33
2022-12-19T05:02:48.887Z,24.07
2022-12-19T05:05:18.872Z,22.10
2022-12-19T05:07:48.744Z,19.90
2022-12-19T05:10:17.529Z,21.60
2022-12-19T05:12:45.981Z,19.00
2022-12-19T05:15:14.460Z,19.73
2022-12-19T05:17:43.149Z,21.10
2022-12-19T05:20:12.043Z,23.77
2022-12-19T05:22:40.512Z,18.97
2022-12-19T05:25:11.093Z,18.20
2022-12-19T05:27:39.696Z,15.30
2022-12-19T05:30:09.988Z,17.63
2022-12-19T05:32:38.574Z,14.97
2022-12-19T05:35:08.372Z,12.93
2022-12-19T05:37:36.898Z,13.40
2022-12-19T05:40:05.707Z,15.40
2022-12-19T05:42:35.607Z,14.30
2022-12-19T05:45:04.043Z,11.70
2022-12-19T05:47:32.552Z,11.93
2022-12-19T05:50:01.185Z,14.93
2022-12-19T05:52:29.648Z,12.07
2022-12-19T05:54:58.229Z,13.97
2022-12-19T05:57:27.590Z,8.80
2022-12-19T05:59:57.432Z,14.27
2022-12-19T06:02:26.583Z,11.03
2022-12-19T06:04:55.250Z,12.57
2022-12-19T06:07:23.950Z,11.83
2022-12-19T06:09:52.707Z,13.07
2022-12-19T06:12:21.354Z,9.50
2022-12-19T06:14:49.798Z,6.93
2022-12-19T06:17:19.744Z,9.10
2022-12-19T06:19:48.404Z,8.33
2022-12-19T06:22:17.132Z,11.87
2022-12-19T06:24:45.705Z,10.43
2022-12-19T06:27:14.321Z,7.03
2022-12-19T06:29:42.774Z,7.23
2022-12-19T06:32:11.411Z,7.00
2022-12-19T06:35:03.663Z,4.67
2022-12-19T06:37:30.031Z,9.23
2022-12-19T06:39:58.576Z,10.97
2022-12-19T06:42:26.051Z,7.13
2022-12-19T06:44:56.125Z,7.53
2022-12-19T06:47:25.526Z,9.37
2022-12-19T06:49:55.450Z,10.33
2022-12-19T06:52:24.159Z,8.83
2022-12-19T06:54:52.599Z,5.37
2022-12-19T06:57:21.034Z,5.07
2022-12-19T06:59:49.731Z,6.33
2022-12-19T07:02:24.796Z,4.83
2022-12-19T07:04:57.534Z,5.70
2022-12-19T07:07:26.235Z,7.43
2022-12-19T07:09:54.857Z,6.57
2022-12-19T07:12:23.607Z,5.33
2022-12-19T07:14:53.724Z,4.53
2022-12-19T07:17:22.654Z,5.93
2022-12-19T07:19:51.339Z,8.77
2022-12-19T07:22:21.205Z,3.70
2022-12-19T07:24:49.928Z,4.90
2022-12-19T07:27:18.577Z,7.83
2022-12-19T07:29:47.057Z,5.33
2022-12-19T07:32:15.631Z,5.97
2022-12-19T07:34:44.257Z,6.90
2022-12-19T07:37:12.712Z,8.63
2022-12-19T07:39:42.686Z,8.37
2022-12-19T07:42:11.324Z,6.37
2022-12-19T07:44:39.791Z,7.03
2022-12-19T07:47:08.490Z,5.80
2022-12-19T07:49:37.285Z,4.07
2022-12-19T07:52:05.809Z,6.87
2022-12-19T07:54:35.125Z,5.97
2022-12-19T07:57:05.811Z,7.53
2022-12-19T07:59:38.981Z,3.57
2022-12-19T08:02:08.688Z,4.00
2022-12-19T08:04:37.327Z,4.63
2022-12-19T08:07:05.790Z,4.47
2022-12-19T08:09:34.458Z,3.80
2022-12-19T08:12:02.987Z,2.13
2022-12-19T08:14:32.867Z,3.03
2022-12-19T08:19:50.003Z,2.20
2022-12-19T08:22:18.631Z,5.80
2022-12-19T08:24:47.169Z,2.50
2022-12-19T08:27:17.196Z,5.03
2022-12-19T08:29:47.651Z,5.20
2022-12-19T08:32:20.805Z,2.23
2022-12-19T08:34:49.878Z,6.27
2022-12-19T08:37:18.605Z,3.57
2022-12-19T08:39:47.065Z,2.47
2022-12-19T08:42:15.825Z,4.83
2022-12-19T08:44:44.316Z,3.23
2022-12-19T08:47:14.499Z,5.20
2022-12-19T08:49:43.082Z,3.63
2022-12-19T08:52:11.563Z,2.90
2022-12-19T08:54:40.130Z,4.40
2022-12-19T08:57:08.799Z,2.00
2022-12-19T08:59:37.313Z,3.10
2022-12-19T09:02:06.766Z,3.93
2022-12-19T09:05:58.786Z,2.77
2022-12-19T09:07:26.220Z,5.47
2022-12-19T09:09:55.213Z,4.67
2022-12-19T09:12:23.662Z,2.97
2022-12-19T09:14:52.179Z,4.43
2022-12-19T09:17:21.071Z,2.67
2022-12-19T09:19:51.300Z,3.03
2022-12-19T09:22:21.114Z,2.20
2022-12-19T09:24:56.395Z,3.73
2022-12-19T09:27:25.516Z,3.90
2022-12-19T09:29:53.983Z,5.10
2022-12-19T09:32:22.689Z,4.50
2022-12-19T09:34:52.700Z,3.97
2022-12-19T09:37:21.150Z,4.13
2022-12-19T09:39:50.170Z,4.17
2022-12-19T09:42:41.223Z,3.93
2022-12-19T09:45:32.862Z,3.00
2022-12-19T09:48:02.049Z,6.67
2022-12-19T09:50:41.381Z,5.30
2022-12-19T09:53:17.950Z,3.30
2022-12-19T09:55:47.222Z,3.33
2022-12-19T09:58:20.796Z,4.07
2022-12-19T10:00:56.029Z,3.80
2022-12-19T10:03:30.539Z,5.43
2022-12-19T10:07:11.013Z,4.80
2022-12-19T10:09:32.945Z,3.57
2022-12-19T10:12:46.512Z,5.33
2022-12-19T10:14:51.985Z,4.70
2022-12-19T10:17:25.795Z,4.03
2022-12-19T10:20:04.079Z,8.27
2022-12-19T10:22:40.761Z,6.83
2022-12-19T10:25:13.928Z,6.70
2022-12-19T10:27:59.708Z,6.30
2022-12-19T10:30:31.705Z,8.10
2022-12-19T10:33:04.787Z,10.67
2022-12-19T10:35:35.762Z,5.67
2022-12-19T10:38:12.199Z,6.33
2022-12-19T10:40:43.559Z,8.70
2022-12-19T10:43:23.123Z,10.10
2022-12-19T10:46:02.583Z,7.93
2022-12-19T10:48:31.859Z,7.93
2022-12-19T10:51:05.226Z,11.57
2022-12-19T10:53:37.029Z,16.23
2022-12-19T10:56:14.539Z,10.67
2022-12-19T10:58:45.099Z,9.73
2022-12-19T11:01:15.541Z,9.90
2022-12-19T11:03:46.554Z,7.97
2022-12-19T11:06:33.916Z,8.33
2022-12-19T11:09:19.129Z,11.87
2022-12-19T11:14:14.712Z,13.20
2022-12-19T11:18:28.455Z,10.73
2022-12-19T11:22:18.080Z,13.73
2022-12-19T11:29:27.069Z,13.87
2022-12-19T11:29:41.073Z,11.63
2022-12-19T11:30:44.318Z,11.20
2022-12-19T11:30:47.660Z,10.80
2022-12-19T11:34:35.819Z,11.40
2022-12-19T11:37:10.530Z,12.30
2022-12-19T11:39:43.061Z,12.47
2022-12-19T11:42:16.237Z,14.33
2022-12-19T11:44:48.546Z,14.73
2022-12-19T11:47:22.849Z,12.63
2022-12-19T11:49:55.718Z,14.13
2022-12-19T11:53:02.773Z,18.00
2022-12-19T11:55:20.471Z,19.40
2022-12-19T11:57:50.417Z,15.40
2022-12-19T12:00:20.509Z,18.93
2022-12-19T12:03:04.013Z,20.37
2022-12-19T12:05:42.293Z,19.07
2022-12-19T12:10:15.329Z,22.27
2022-12-19T12:18:22.121Z,19.73
2022-12-19T12:23:13.380Z,19.30
2022-12-19T12:27:47.403Z,18.60
2022-12-19T12:31:28.278Z,17.70
2022-12-19T12:31:43.408Z,19.03
2022-12-19T12:31:53.905Z,16.93
2022-12-19T12:31:56.041Z,15.23
2022-12-19T12:35:42.527Z,18.40
2022-12-19T12:35:47.064Z,18.60
2022-12-19T12:40:45.404Z,18.73
2022-12-19T12:43:19.587Z,21.47
2022-12-19T12:45:48.210Z,23.30
2022-12-19T12:48:23.436Z,19.70
2022-12-19T12:50:55.400Z,21.57
2022-12-19T12:53:26.892Z,17.77
2022-12-19T12:55:56.706Z,22.23
2022-12-19T12:58:44.000Z,18.97
2022-12-19T13:01:14.056Z,23.27
2022-12-19T13:03:44.612Z,19.37
2022-12-19T13:06:26.243Z,19.07
2022-12-19T13:08:55.733Z,22.10
2022-12-19T13:11:55.816Z,20.50
2022-12-19T13:14:45.237Z,22.43
2022-12-19T13:17:14.691Z,19.03
2022-12-19T13:19:54.395Z,18.87
2022-12-19T13:22:24.548Z,21.07
2022-12-19T13:24:53.576Z,20.03
2022-12-19T13:27:35.558Z,20.10
2022-12-19T13:30:07.469Z,21.30
2022-12-19T13:32:56.242Z,20.97
2022-12-19T13:37:31.320Z,20.23
2022-12-19T13:39:50.243Z,19.17
2022-12-19T13:41:45.184Z,20.67
2022-12-19T13:44:14.139Z,19.73
2022-12-19T13:46:43.700Z,17.93
2022-12-19T13:49:14.550Z,17.73
2022-12-19T13:51:48.013Z,19.50
2022-12-19T13:54:20.248Z,21.17
2022-12-19T13:56:48.922Z,21.97
2022-12-19T13:59:17.427Z,22.33
2022-12-19T14:01:46.112Z,21.80
2022-12-19T14:04:15.602Z,19.33
2022-12-19T14:06:46.326Z,16.27
2022-12-19T14:11:29.559Z,16.30
2022-12-19T14:13:46.670Z,21.37
2022-12-19T14:15:30.307Z,19.63
2022-12-19T14:18:41.818Z,17.60
2022-12-19T14:22:08.919Z,16.13
2022-12-19T14:23:43.924Z,23.97
2022-12-19T14:28:26.776Z,16.87
2022-12-19T14:29:06.593Z,19.00
2022-12-19T14:31:35.920Z,18.70
2022-12-19T14:34:35.732Z,19.23
2022-12-19T14:36:54.461Z,21.77
2022-12-19T14:39:29.327Z,22.60
2022-12-19T14:42:31.760Z,20.50
2022-12-19T14:54:02.165Z,20.97
2022-12-19T14:54:05.641Z,18.03
2022-12-19T14:54:24.348Z,20.90
2022-12-19T14:57:25.298Z,18.47
2022-12-19T15:01:07.304Z,20.30
2022-12-19T15:03:16.239Z,15.97
2022-12-19T15:05:45.135Z,16.40
2022-12-19T15:08:13.842Z,21.33
2022-12-19T15:11:05.357Z,18.93
2022-12-19T15:14:52.225Z,18.63
2022-12-19T15:16:26.837Z,16.00
2022-12-19T15:18:57.315Z,20.63
2022-12-19T15:21:26.171Z,20.77
2022-12-19T15:23:54.700Z,16.33
2022-12-19T15:26:29.641Z,17.40
2022-12-19T15:28:59.984Z,17.20
2022-12-19T15:31:34.733Z,18.17
2022-12-19T15:34:33.515Z,14.90
2022-12-19T15:36:53.086Z,20.43
2022-12-19T15:39:22.235Z,16.70
2022-12-19T15:41:52.326Z,15.67
2022-12-19T15:44:23.889Z,20.47
2022-12-19T15:46:52.707Z,17.70
2022-12-19T15:49:22.010Z,18.30
2022-12-19T15:51:51.636Z,18.60
2022-12-19T15:57:13.294Z,15.63
2022-12-19T15:59:45.954Z,19.50
2022-12-19T16:02:19.511Z,18.60
2022-12-19T16:04:48.546Z,17.30
2022-12-19T16:07:18.091Z,17.07
2022-12-19T16:09:46.868Z,21.53
2022-12-19T16:12:16.544Z,16.87
2022-12-19T16:14:47.819Z,13.90
2022-12-19T16:17:20.031Z,17.33
2022-12-19T16:19:48.805Z,15.10
2022-12-19T16:22:19.570Z,16.13
2022-12-19T16:24:48.185Z,18.67
2022-12-19T16:27:21.195Z,14.77
2022-12-19T16:29:51.367Z,18.57
2022-12-19T16:32:20.379Z,16.83
2022-12-19T16:34:48.895Z,16.67
2022-12-19T16:37:17.519Z,16.13
2022-12-19T16:39:45.968Z,15.57
2022-12-19T16:42:17.231Z,17.87
2022-12-19T16:44:46.743Z,15.33
2022-12-19T16:47:18.273Z,13.90
2022-12-19T16:49:47.095Z,16.57
2022-12-19T16:52:15.549Z,12.97
2022-12-19T16:54:44.076Z,19.47
2022-12-19T16:57:19.684Z,15.53
2022-12-19T16:59:48.270Z,14.13
2022-12-19T17:02:34.400Z,16.90
2022-12-19T17:05:03.047Z,17.27
2022-12-19T17:07:33.047Z,14.17
2022-12-19T17:10:01.627Z,14.50
2022-12-19T17:12:30.334Z,15.90
2022-12-19T17:14:58.910Z,12.70
2022-12-19T17:17:28.925Z,12.70
2022-12-19T17:19:57.370Z,13.37
2022-12-19T17:22:25.908Z,12.13
2022-12-19T17:24:54.496Z,11.07
2022-12-19T17:27:23.477Z,13.80
2022-12-19T17:29:52.063Z,14.93
2022-12-19T17:32:24.224Z,13.83
2022-12-19T17:34:54.616Z,13.03
2022-12-19T17:37:23.471Z,13.33
2022-12-19T17:39:51.960Z,16.43
2022-12-19T17:42:22.727Z,14.63
2022-12-19T17:44:51.401Z,14.53
2022-12-19T17:47:21.108Z,15.33
2022-12-19T17:49:50.051Z,14.23
2022-12-19T17:52:21.176Z,14.27
2022-12-19T17:54:49.637Z,13.90
2022-12-19T17:57:19.506Z,14.60
2022-12-19T17:59:48.209Z,19.93
2022-12-19T18:02:21.841Z,14.77
2022-12-19T18:04:50.879Z,16.03
2022-12-19T18:07:21.073Z,17.83
2022-12-19T18:09:49.650Z,19.83
2022-12-19T18:12:18.228Z,16.30
2022-12-19T18:14:46.697Z,18.23
2022-12-19T18:17:17.675Z,17.10
2022-12-19T18:19:46.335Z,16.97
2022-12-19T18:22:15.349Z,15.80
2022-12-19T18:24:45.337Z,17.27
2022-12-19T18:27:13.928Z,15.23
2022-12-19T18:29:42.423Z,17.77
2022-12-19T18:32:19.032Z,15.87
2022-12-19T18:34:47.589Z,18.20
2022-12-19T18:37:17.191Z,19.37
2022-12-19T18:39:47.196Z,17.37
2022-12-19T18:42:20.731Z,15.27
2022-12-19T18:44:49.308Z,16.90
2022-12-19T18:47:21.399Z,17.60
2022-12-19T18:49:50.732Z,16.10
2022-12-19T18:52:19.405Z,16.67
2022-12-19T18:54:49.265Z,16.70
2022-12-19T18:57:17.839Z,15.20
2022-12-19T18:59:47.417Z,15.40
2022-12-19T19:02:22.966Z,18.97
2022-12-19T19:04:51.568Z,16.60
2022-12-19T19:07:20.039Z,17.63
2022-12-19T19:09:49.991Z,18.00
2022-12-19T19:12:18.510Z,14.17
2022-12-19T19:14:46.968Z,16.57
2022-12-19T19:17:19.583Z,16.07
2022-12-19T19:19:48.187Z,15.73
2022-12-19T19:22:16.647Z,15.80
2022-12-19T19:24:45.233Z,14.90
2022-12-19T19:27:15.245Z,14.73
2022-12-19T19:29:43.690Z,14.47
2022-12-19T19:32:12.268Z,16.07
2022-12-19T19:34:42.536Z,14.13
2022-12-19T19:37:12.192Z,16.03
2022-12-19T19:39:40.799Z,13.47
2022-12-19T19:42:09.774Z,15.53
2022-12-19T19:44:39.685Z,15.80
2022-12-19T19:47:08.203Z,13.67
2022-12-19T19:49:36.807Z,14.93
2022-12-19T19:52:05.394Z,13.60
2022-12-19T19:54:34.875Z,13.13
2022-12-19T19:57:03.524Z,12.90
2022-12-19T19:59:32.555Z,12.83
2022-12-19T20:02:02.687Z,12.83
2022-12-19T20:04:31.509Z,12.73
2022-12-19T20:07:00.120Z,10.37
2022-12-19T20:09:28.944Z,11.90
2022-12-19T20:11:57.600Z,10.63
2022-12-19T20:14:26.689Z,10.17
2022-12-19T20:16:55.215Z,10.60
2022-12-19T20:19:25.176Z,11.10
2022-12-19T20:21:53.723Z,11.17
2022-12-19T20:24:22.157Z,9.90
2022-12-19T20:26:50.720Z,8.67
2022-12-19T20:29:19.318Z,10.27
2022-12-19T20:31:47.844Z,8.57
2022-12-19T20:34:16.850Z,8.37
2022-12-19T20:36:46.774Z,8.97
2022-12-19T20:39:15.322Z,8.47
2022-12-19T20:41:43.878Z,7.53
2022-12-19T20:44:12.395Z,9.80
2022-12-19T20:46:40.951Z,6.67
2022-12-19T20:49:09.681Z,7.17
2022-12-19T20:51:38.622Z,8.40
2022-12-19T20:54:08.682Z,9.47
2022-12-19T20:56:37.244Z,7.90
2022-12-19T20:59:05.787Z,7.43
2022-12-19T21:01:34.351Z,7.83
2022-12-19T21:04:03.066Z,7.07
2022-12-19T21:06:31.986Z,7.40
2022-12-19T21:09:00.449Z,8.50
2022-12-19T21:11:30.432Z,8.00
2022-12-19T21:13:59.200Z,7.37
2022-12-19T21:16:27.844Z,7.67
2022-12-19T21:18:56.501Z,6.70
2022-12-19T21:21:25.697Z,6.77
2022-12-19T21:23:54.368Z,5.67
2022-12-19T21:26:23.630Z,4.90
2022-12-19T21:28:53.904Z,5.57
2022-12-19T21:31:23.399Z,5.23
2022-12-19T21:33:52.233Z,5.20
2022-12-19T21:36:21.689Z,7.23
2022-12-19T21:38:50.542Z,6.30
2022-12-19T21:41:19.697Z,4.80
2022-12-19T21:43:48.944Z,4.27
2022-12-19T21:46:19.482Z,5.33
2022-12-19T21:48:49.227Z,5.20
2022-12-19T21:51:18.626Z,5.67
2022-12-19T21:53:47.545Z,3.80
2022-12-19T21:56:22.101Z,3.87
2022-12-19T21:58:51.922Z,3.87
2022-12-19T22:01:21.909Z,2.83
2022-12-19T22:03:50.960Z,3.07
2022-12-19T22:06:27.806Z,2.80
2022-12-19T22:08:57.615Z,3.10
2022-12-19T22:11:26.115Z,2.87
2022-12-19T22:13:54.854Z,2.10
2022-12-19T22:16:25.019Z,2.50
2022-12-19T22:18:54.988Z,1.87
2022-12-19T22:21:23.443Z,2.93
2022-12-19T22:23:54.194Z,2.30
2022-12-19T22:26:23.679Z,1.80
2022-12-19T22:28:52.942Z,1.93
2022-12-19T22:31:22.539Z,1.77
2022-12-19T22:33:53.739Z,2.30
2022-12-19T22:36:27.692Z,2.07
2022-12-19T22:38:57.658Z,1.73
2022-12-19T22:41:26.516Z,2.10
2022-12-19T22:43:55.387Z,2.00
2022-12-19T22:46:26.514Z,2.07
2022-12-19T22:48:57.268Z,1.80
2022-12-19T22:51:26.473Z,2.20
2022-12-19T22:53:55.483Z,1.20
2022-12-19T22:56:25.287Z,1.97
2022-12-19T22:58:55.009Z,1.90
2022-12-19T23:01:24.949Z,1.93
2022-12-19T23:03:54.712Z,2.00
2022-12-19T23:06:25.526Z,3.07
2022-12-19T23:08:53.995Z,1.87
2022-12-19T23:11:23.766Z,2.90
2022-12-19T23:13:53.840Z,1.90
2022-12-19T23:16:22.893Z,1.80
2022-12-19T23:18:51.442Z,2.37
2022-12-19T23:21:20.781Z,1.80
2022-12-19T23:23:51.620Z,2.03
2022-12-19T23:26:21.013Z,2.73
2022-12-19T23:28:52.269Z,1.90
2022-12-19T23:31:21.092Z,1.80
2022-12-19T23:33:49.747Z,1.73
2022-12-19T23:36:32.386Z,2.00
2022-12-19T23:39:08.268Z,2.87
2022-12-19T23:41:36.840Z,1.63
2022-12-19T23:44:05.504Z,1.63
2022-12-19T23:46:34.136Z,1.70
2022-12-19T23:49:02.683Z,1.80
2022-12-19T23:51:31.217Z,1.40
2022-12-19T23:53:59.830Z,1.80
2022-12-19T23:56:30.807Z,1.30
2022-12-19T23:58:59.705Z,1.10
